Time;durP1;ratioP1;P1;durP2;ratioP2;P2;SDS_P1;SDS_P2;PMS_P1;PMS_P2;Temp;Humidity;BMP_temperature;BMP_pressure;BME280_temperature;BME280_humidity;BME280_pressure;Samples;Min_cycle;Max_cycle;Signal;HPM_P1;HPM_P2
2021/09/16 00:00:18;;;;;;;10.93;8.27;;;18.10;99.90;;;;;;5084725;28;22386;-59
2021/09/16 00:02:46;;;;;;;12.70;8.40;;;18.10;99.90;;;;;;5073061;28;20956;-59
2021/09/16 00:05:14;;;;;;;12.67;9.60;;;18.10;99.90;;;;;;5072856;28;20447;-59
2021/09/16 00:07:41;;;;;;;17.83;9.57;;;18.10;99.90;;;;;;5072238;28;20447;-59
2021/09/16 00:10:09;;;;;;;12.57;9.13;;;18.10;99.90;;;;;;5072779;28;20458;-59
2021/09/16 00:12:36;;;;;;;11.47;8.83;;;18.10;99.90;;;;;;5090818;28;20787;-59
2021/09/16 00:15:04;;;;;;;18.00;9.90;;;18.10;99.90;;;;;;5072544;28;20454;-59
2021/09/16 00:17:31;;;;;;;11.80;9.00;;;18.10;99.90;;;;;;5072854;28;20478;-59
2021/09/16 00:19:59;;;;;;;15.57;10.00;;;18.10;99.90;;;;;;5072254;28;20862;-59
2021/09/16 00:22:27;;;;;;;17.90;10.83;;;18.00;99.90;;;;;;5072388;28;20516;-59
2021/09/16 00:24:54;;;;;;;15.83;9.77;;;17.90;99.90;;;;;;5072474;28;21016;-59
2021/09/16 00:27:21;;;;;;;14.80;9.83;;;17.90;99.90;;;;;;5072390;28;20568;-59
2021/09/16 00:29:48;;;;;;;14.60;10.57;;;17.90;99.90;;;;;;5071717;28;20971;-58
2021/09/16 00:32:15;;;;;;;15.90;10.83;;;17.80;99.90;;;;;;5072021;28;20470;-59
2021/09/16 00:34:42;;;;;;;18.33;10.47;;;17.80;99.90;;;;;;5071632;28;20501;-59
2021/09/16 00:37:10;;;;;;;15.70;9.97;;;17.80;99.90;;;;;;5072045;28;20454;-59
2021/09/16 00:39:37;;;;;;;14.57;9.77;;;17.80;99.90;;;;;;5072379;28;20512;-58
2021/09/16 00:42:04;;;;;;;18.27;11.17;;;17.80;99.90;;;;;;5071849;28;20483;-59
2021/09/16 00:44:31;;;;;;;13.57;9.40;;;17.80;99.90;;;;;;5072089;28;20459;-59
2021/09/16 00:46:58;;;;;;;14.17;10.00;;;17.90;99.90;;;;;;5073267;28;20455;-59
2021/09/16 00:49:25;;;;;;;15.60;9.40;;;17.90;99.90;;;;;;5073111;28;20505;-58
2021/09/16 00:51:53;;;;;;;14.80;10.97;;;18.00;99.90;;;;;;5071855;28;20475;-59
2021/09/16 00:54:22;;;;;;;16.17;10.50;;;18.00;99.90;;;;;;5072040;28;20961;-59
2021/09/16 00:56:51;;;;;;;10.83;9.00;;;18.00;99.90;;;;;;5071945;28;20870;-59
2021/09/16 00:59:21;;;;;;;13.87;10.77;;;18.00;99.90;;;;;;5072802;28;20477;-58
2021/09/16 01:01:48;;;;;;;16.67;10.60;;;17.90;99.90;;;;;;5071764;28;20471;-58
2021/09/16 01:04:15;;;;;;;13.83;9.47;;;17.90;99.90;;;;;;5074562;28;20599;-58
2021/09/16 01:06:42;;;;;;;16.37;10.20;;;18.00;99.90;;;;;;5071980;28;20454;-59
2021/09/16 01:09:11;;;;;;;13.13;8.50;;;18.00;99.90;;;;;;5074494;28;20458;-59
2021/09/16 01:11:40;;;;;;;13.03;9.37;;;18.10;99.90;;;;;;5086889;28;20477;-59
2021/09/16 01:14:07;;;;;;;14.57;9.00;;;18.20;99.90;;;;;;5071827;28;20534;-58
2021/09/16 01:16:35;;;;;;;12.93;9.60;;;18.10;99.90;;;;;;5075496;28;20482;-59
2021/09/16 01:19:02;;;;;;;12.07;9.30;;;18.20;99.90;;;;;;5087184;28;20469;-58
2021/09/16 01:21:29;;;;;;;10.23;8.00;;;18.10;99.90;;;;;;5079298;28;20473;-58
2021/09/16 01:23:57;;;;;;;12.83;9.70;;;18.10;99.90;;;;;;5079151;28;20442;-59
2021/09/16 01:26:24;;;;;;;14.07;9.60;;;18.20;99.90;;;;;;5092063;28;20870;-59
2021/09/16 01:28:51;;;;;;;13.07;8.80;;;18.20;99.90;;;;;;5091770;28;20442;-59
2021/09/16 01:31:34;;;;;;;11.27;8.10;;;18.10;99.90;;;;;;5071339;28;20471;-59
2021/09/16 01:34:03;;;;;;;10.87;8.27;;;18.10;99.90;;;;;;5071669;28;20447;-59
2021/09/16 01:36:30;;;;;;;11.47;8.30;;;18.10;99.90;;;;;;5076896;28;20507;-58
2021/09/16 01:38:58;;;;;;;12.60;9.07;;;18.20;99.90;;;;;;5073659;28;20478;-58
2021/09/16 01:41:26;;;;;;;13.00;9.40;;;18.20;99.90;;;;;;5091117;28;21067;-59
2021/09/16 01:43:53;;;;;;;16.10;9.23;;;18.10;99.90;;;;;;5091517;28;20507;-59
2021/09/16 01:46:20;;;;;;;14.60;9.73;;;18.00;99.90;;;;;;5076652;28;20455;-59
2021/09/16 01:48:47;;;;;;;14.23;10.27;;;18.00;99.90;;;;;;5071311;28;20496;-59
2021/09/16 01:51:14;;;;;;;15.43;10.27;;;18.00;99.90;;;;;;5072988;28;20881;-58
2021/09/16 01:53:42;;;;;;;14.00;9.77;;;18.00;99.90;;;;;;5072547;28;20446;-58
2021/09/16 01:56:10;;;;;;;13.60;9.90;;;17.90;99.90;;;;;;5072401;28;20509;-58
2021/09/16 01:58:37;;;;;;;14.20;10.70;;;17.80;99.90;;;;;;5071218;28;20909;-59
2021/09/16 02:01:05;;;;;;;13.87;9.23;;;17.80;99.90;;;;;;5089808;28;20470;-59
2021/09/16 02:03:32;;;;;;;18.30;9.40;;;17.80;99.90;;;;;;5091091;28;20453;-59
2021/09/16 02:05:59;;;;;;;13.03;9.30;;;17.80;99.90;;;;;;5090873;28;20449;-59
2021/09/16 02:08:26;;;;;;;12.47;8.90;;;17.90;99.90;;;;;;5091474;28;21020;-59
2021/09/16 02:10:53;;;;;;;13.17;9.63;;;17.90;99.90;;;;;;5080716;28;20523;-59
2021/09/16 02:13:22;;;;;;;14.40;9.23;;;18.00;99.90;;;;;;5091466;28;20495;-59
2021/09/16 02:15:49;;;;;;;12.33;9.00;;;18.00;99.90;;;;;;5075120;28;20447;-59
2021/09/16 02:18:16;;;;;;;14.90;9.47;;;18.00;99.90;;;;;;5072948;28;20482;-59
2021/09/16 02:20:43;;;;;;;14.57;10.10;;;18.00;99.90;;;;;;5075217;28;20467;-59
2021/09/16 02:23:10;;;;;;;16.30;10.43;;;18.10;99.90;;;;;;5071194;28;20454;-59
2021/09/16 02:25:37;;;;;;;16.63;10.37;;;18.00;99.90;;;;;;5072123;28;20862;-58
2021/09/16 02:28:04;;;;;;;14.80;11.93;;;18.00;99.90;;;;;;5083327;28;20442;-58
2021/09/16 02:30:33;;;;;;;16.87;11.63;;;18.00;99.90;;;;;;5079284;28;20478;-58
2021/09/16 02:33:00;;;;;;;15.93;10.93;;;17.90;99.90;;;;;;5080013;28;20449;-59
2021/09/16 02:35:28;;;;;;;14.13;10.60;;;17.90;99.90;;;;;;5095107;28;20514;-58
2021/09/16 02:37:55;;;;;;;15.60;10.17;;;17.90;99.90;;;;;;5094928;28;20890;-59
2021/09/16 02:40:25;;;;;;;11.50;9.47;;;17.90;99.90;;;;;;5090558;28;20469;-58
2021/09/16 02:42:52;;;;;;;10.97;8.13;;;17.90;99.90;;;;;;5074400;28;20505;-58
2021/09/16 02:45:22;;;;;;;14.83;9.30;;;17.90;99.90;;;;;;5074327;28;21040;-59
2021/09/16 02:47:51;;;;;;;14.13;9.47;;;18.00;99.90;;;;;;5076509;28;20979;-59
2021/09/16 02:50:18;;;;;;;14.00;8.80;;;17.90;99.90;;;;;;5074500;28;20479;-59
2021/09/16 02:52:45;;;;;;;12.23;9.50;;;17.90;99.90;;;;;;5074629;28;20504;-59
2021/09/16 02:55:15;;;;;;;14.73;10.43;;;17.90;99.90;;;;;;5074340;28;20492;-58
2021/09/16 02:57:42;;;;;;;12.90;9.40;;;17.90;99.90;;;;;;5074147;28;20450;-59
2021/09/16 03:00:10;;;;;;;15.70;10.47;;;17.90;99.90;;;;;;5083366;28;20450;-58
2021/09/16 03:02:37;;;;;;;16.50;10.57;;;17.80;99.90;;;;;;5078441;28;20528;-58
2021/09/16 03:05:07;;;;;;;14.83;9.37;;;17.80;99.90;;;;;;5074265;28;20500;-59
2021/09/16 03:07:34;;;;;;;14.03;10.37;;;17.90;99.90;;;;;;5079298;28;20445;-58
2021/09/16 03:10:01;;;;;;;13.00;9.30;;;17.90;99.90;;;;;;5083456;28;20442;-59
2021/09/16 03:12:28;;;;;;;13.30;9.20;;;17.90;99.90;;;;;;5073940;28;20494;-59
2021/09/16 03:14:55;;;;;;;13.03;8.37;;;18.00;99.90;;;;;;5074367;28;20447;-59
2021/09/16 03:17:22;;;;;;;16.10;9.47;;;18.00;99.90;;;;;;5091763;28;20458;-59
2021/09/16 03:19:49;;;;;;;17.23;10.70;;;18.00;99.90;;;;;;5085551;28;20478;-59
2021/09/16 03:22:17;;;;;;;10.30;8.20;;;18.00;99.90;;;;;;5073577;28;21001;-58
2021/09/16 03:24:44;;;;;;;15.50;9.77;;;18.00;99.90;;;;;;5077597;28;20461;-58
2021/09/16 03:27:11;;;;;;;14.67;9.20;;;18.10;99.90;;;;;;5076526;28;20458;-59
2021/09/16 03:29:38;;;;;;;13.23;9.43;;;18.10;99.90;;;;;;5086555;28;20455;-59
2021/09/16 03:32:06;;;;;;;14.17;10.90;;;18.10;99.90;;;;;;5085259;28;21056;-59
2021/09/16 03:34:33;;;;;;;15.97;10.53;;;17.90;99.90;;;;;;5093412;28;21014;-59
2021/09/16 03:37:00;;;;;;;15.60;10.70;;;17.70;99.90;;;;;;5093104;28;20454;-59
2021/09/16 03:39:28;;;;;;;17.07;10.87;;;17.80;99.90;;;;;;5073090;28;20995;-58
2021/09/16 03:41:55;;;;;;;16.60;10.60;;;17.80;99.90;;;;;;5072291;28;21023;-59
2021/09/16 03:44:22;;;;;;;13.37;10.00;;;17.90;99.90;;;;;;5073064;28;20508;-59
2021/09/16 03:46:51;;;;;;;14.47;10.97;;;17.90;99.90;;;;;;5072791;28;20524;-59
2021/09/16 03:49:18;;;;;;;14.57;10.10;;;17.90;99.90;;;;;;5073030;28;20827;-59
2021/09/16 03:51:45;;;;;;;15.23;10.17;;;18.00;99.90;;;;;;5072904;28;20865;-59
2021/09/16 03:54:12;;;;;;;11.37;8.17;;;18.00;99.90;;;;;;5072835;28;21015;-58
2021/09/16 03:56:41;;;;;;;14.30;10.90;;;18.10;99.90;;;;;;5072931;28;20483;-58
2021/09/16 03:59:08;;;;;;;14.77;9.83;;;18.10;99.90;;;;;;5072210;28;20483;-59
2021/09/16 04:01:35;;;;;;;15.00;9.57;;;18.10;99.90;;;;;;5072839;28;20463;-59
2021/09/16 04:04:02;;;;;;;14.80;10.30;;;18.10;99.90;;;;;;5072781;28;20458;-59
2021/09/16 04:06:29;;;;;;;10.30;8.23;;;18.20;99.90;;;;;;5072863;28;20938;-59
2021/09/16 04:08:56;;;;;;;17.50;9.83;;;18.10;99.90;;;;;;5072888;28;20497;-59
2021/09/16 04:11:23;;;;;;;13.40;10.87;;;18.20;99.90;;;;;;5072043;28;20475;-59
2021/09/16 04:13:51;;;;;;;14.43;10.63;;;18.10;99.90;;;;;;5072380;28;20458;-59
2021/09/16 04:16:18;;;;;;;14.63;9.70;;;18.10;99.90;;;;;;5072786;28;20504;-59
2021/09/16 04:18:45;;;;;;;14.50;10.00;;;18.10;99.90;;;;;;5074499;28;21052;-59
2021/09/16 04:21:12;;;;;;;11.93;9.00;;;18.10;99.90;;;;;;5092421;28;20493;-59
2021/09/16 04:23:39;;;;;;;12.57;8.90;;;18.20;99.90;;;;;;5088393;28;20454;-59
2021/09/16 04:26:06;;;;;;;11.80;9.30;;;18.20;99.90;;;;;;5096258;28;20939;-59
2021/09/16 04:28:33;;;;;;;12.47;8.80;;;18.20;99.90;;;;;;5086790;28;20945;-58
2021/09/16 04:31:02;;;;;;;12.70;9.23;;;18.20;99.90;;;;;;5082996;28;20464;-58
2021/09/16 04:33:29;;;;;;;9.90;8.00;;;18.30;99.90;;;;;;5112141;28;20445;-59
2021/09/16 04:35:56;;;;;;;15.40;9.33;;;18.30;99.90;;;;;;5111912;28;20445;-59
2021/09/16 04:38:23;;;;;;;11.97;8.87;;;18.20;99.90;;;;;;5111752;28;20445;-59
2021/09/16 04:40:50;;;;;;;12.80;9.90;;;18.20;99.90;;;;;;5101167;28;20464;-59
2021/09/16 04:43:17;;;;;;;19.43;10.00;;;18.20;99.90;;;;;;5091546;28;20804;-59
2021/09/16 04:45:44;;;;;;;13.60;9.53;;;18.20;99.90;;;;;;5085687;28;20450;-59
2021/09/16 04:48:13;;;;;;;12.47;10.10;;;18.20;99.90;;;;;;5092476;28;20980;-59
2021/09/16 04:50:40;;;;;;;15.03;9.83;;;18.20;99.90;;;;;;5094843;28;20461;-58
2021/09/16 04:53:07;;;;;;;13.57;9.83;;;18.30;99.90;;;;;;5092405;28;20446;-59
2021/09/16 04:55:34;;;;;;;10.77;8.67;;;18.30;99.90;;;;;;5089228;28;20497;-59
2021/09/16 04:58:02;;;;;;;10.73;8.33;;;18.30;99.90;;;;;;5100601;28;20525;-58
2021/09/16 05:00:30;;;;;;;13.17;8.80;;;18.40;99.90;;;;;;5091869;28;20478;-58
2021/09/16 05:02:57;;;;;;;11.87;9.40;;;18.40;99.90;;;;;;5103884;28;20442;-59
2021/09/16 05:05:26;;;;;;;14.60;9.10;;;18.30;99.90;;;;;;5111187;28;20502;-58
2021/09/16 05:07:53;;;;;;;11.50;9.37;;;18.40;99.90;;;;;;5111140;28;20437;-58
2021/09/16 05:10:24;;;;;;;12.40;9.67;;;18.40;99.90;;;;;;5091468;28;20473;-58
2021/09/16 05:12:51;;;;;;;15.00;9.80;;;18.40;99.90;;;;;;5088025;28;20446;-59
2021/09/16 05:15:22;;;;;;;13.33;9.80;;;18.40;99.90;;;;;;5109486;28;20460;-58
2021/09/16 05:17:49;;;;;;;15.83;11.57;;;18.40;99.90;;;;;;5110273;28;20449;-58
2021/09/16 05:20:16;;;;;;;12.23;8.93;;;18.50;99.90;;;;;;5091659;28;21010;-59
2021/09/16 05:22:44;;;;;;;13.77;10.40;;;18.40;99.90;;;;;;5064000;22;20571;-55
2021/09/16 05:25:14;;;;;;;13.80;10.73;;;18.50;99.90;;;;;;5024490;28;20449;-54
2021/09/16 05:27:41;;;;;;;11.07;8.97;;;18.40;99.90;;;;;;5029023;28;20436;-55
2021/09/16 05:30:09;;;;;;;16.23;11.47;;;18.40;99.90;;;;;;5028064;28;20434;-54
2021/09/16 05:32:38;;;;;;;13.87;9.87;;;18.40;99.90;;;;;;5010077;28;20461;-54
2021/09/16 05:35:05;;;;;;;12.63;9.70;;;18.40;99.90;;;;;;5015790;28;20448;-55
2021/09/16 05:37:32;;;;;;;12.23;9.70;;;18.40;99.90;;;;;;5015962;28;20442;-55
2021/09/16 05:40:01;;;;;;;11.73;9.50;;;18.40;99.90;;;;;;5011724;28;20897;-55
2021/09/16 05:42:28;;;;;;;11.97;10.60;;;18.40;99.90;;;;;;5012823;28;20832;-54
2021/09/16 05:44:55;;;;;;;15.13;10.33;;;18.50;99.90;;;;;;5022845;28;20508;-55
2021/09/16 05:47:23;;;;;;;13.43;10.37;;;18.50;99.90;;;;;;5013585;28;20445;-55
2021/09/16 05:49:50;;;;;;;14.40;10.13;;;18.50;99.90;;;;;;5013270;28;20441;-55
2021/09/16 05:52:19;;;;;;;12.77;10.17;;;18.50;99.90;;;;;;5021004;28;20909;-56
2021/09/16 05:54:46;;;;;;;13.97;10.63;;;18.50;99.90;;;;;;5017246;28;20485;-56
2021/09/16 05:57:14;;;;;;;13.67;10.23;;;18.50;99.90;;;;;;5021737;28;20468;-55
2021/09/16 05:59:41;;;;;;;12.90;10.40;;;18.50;99.90;;;;;;5024015;28;20487;-55
2021/09/16 06:02:09;;;;;;;18.07;11.40;;;18.60;99.90;;;;;;5023889;28;20488;-55
2021/09/16 06:04:36;;;;;;;15.27;10.40;;;18.60;99.90;;;;;;5020122;28;20464;-55
2021/09/16 06:07:04;;;;;;;16.67;11.50;;;18.60;99.90;;;;;;5024836;28;20498;-55
2021/09/16 06:09:32;;;;;;;15.53;11.17;;;18.70;99.90;;;;;;5029224;28;20860;-55
2021/09/16 06:12:02;;;;;;;16.73;11.27;;;18.60;99.90;;;;;;5016307;28;20998;-55
2021/09/16 06:14:30;;;;;;;23.93;12.90;;;18.60;99.90;;;;;;5007268;28;20454;-55
2021/09/16 06:16:57;;;;;;;16.83;10.93;;;18.60;99.90;;;;;;5026333;28;20448;-55
2021/09/16 06:19:24;;;;;;;18.00;11.73;;;18.60;99.90;;;;;;5019444;28;20543;-55
2021/09/16 06:21:51;;;;;;;16.60;12.70;;;18.60;99.90;;;;;;5018585;28;20489;-55
2021/09/16 06:24:19;;;;;;;19.33;11.80;;;18.60;99.90;;;;;;5022258;28;20461;-55
2021/09/16 06:26:48;;;;;;;17.87;11.33;;;18.70;99.90;;;;;;5012203;28;21001;-55
2021/09/16 06:29:15;;;;;;;18.03;12.40;;;18.80;99.90;;;;;;5014103;28;20500;-55
2021/09/16 06:31:44;;;;;;;24.03;11.07;;;18.80;99.90;;;;;;5014234;28;20469;-55
2021/09/16 06:34:11;;;;;;;18.67;11.33;;;18.80;99.90;;;;;;5021385;28;20504;-55
2021/09/16 06:36:39;;;;;;;15.93;11.53;;;18.80;99.90;;;;;;5028130;28;20825;-54
2021/09/16 06:39:07;;;;;;;17.73;10.43;;;18.90;99.90;;;;;;5027413;28;20515;-55
2021/09/16 06:41:34;;;;;;;17.00;10.97;;;18.90;99.90;;;;;;5021484;28;20889;-55
2021/09/16 06:44:01;;;;;;;16.50;11.60;;;18.80;99.90;;;;;;5032900;28;20440;-55
2021/09/16 06:46:28;;;;;;;16.83;12.03;;;18.90;99.90;;;;;;5032489;28;20479;-55
2021/09/16 06:48:57;;;;;;;18.23;11.87;;;18.90;99.90;;;;;;5032568;28;20451;-55
2021/09/16 06:51:25;;;;;;;18.10;13.10;;;18.90;99.90;;;;;;5027438;28;20442;-54
2021/09/16 06:53:54;;;;;;;14.20;11.70;;;19.10;99.90;;;;;;5014470;28;20210;-55
2021/09/16 06:56:21;;;;;;;16.77;11.20;;;19.20;99.90;;;;;;5029868;28;20992;-54
2021/09/16 06:58:48;;;;;;;14.97;11.27;;;19.30;99.90;;;;;;5034227;28;20498;-54
2021/09/16 07:01:15;;;;;;;16.47;10.83;;;19.40;99.90;;;;;;5032599;28;20485;-55
2021/09/16 07:03:42;;;;;;;13.53;10.67;;;19.50;99.90;;;;;;5040440;28;20578;-54
2021/09/16 07:06:10;;;;;;;19.50;10.33;;;19.50;99.90;;;;;;5025339;28;20464;-54
2021/09/16 07:08:38;;;;;;;20.40;10.00;;;19.50;99.90;;;;;;5028694;28;20452;-54
2021/09/16 07:11:05;;;;;;;15.80;10.43;;;19.50;99.90;;;;;;5033251;28;20444;-55
2021/09/16 07:13:32;;;;;;;14.10;10.20;;;19.50;99.90;;;;;;5032881;28;20443;-55
2021/09/16 07:16:02;;;;;;;14.10;9.27;;;19.50;99.90;;;;;;5032510;28;20445;-55
2021/09/16 07:18:31;;;;;;;13.37;9.57;;;19.60;99.90;;;;;;5026007;28;20870;-55
2021/09/16 07:20:58;;;;;;;13.30;10.07;;;19.60;99.90;;;;;;5034189;28;20490;-55
2021/09/16 07:23:30;;;;;;;11.40;9.73;;;19.60;99.90;;;;;;5025299;28;20538;-54
2021/09/16 07:25:57;;;;;;;15.77;10.33;;;19.50;99.90;;;;;;5031240;28;20977;-55
2021/09/16 07:28:24;;;;;;;12.60;10.60;;;19.40;99.90;;;;;;5016602;28;20500;-54
2021/09/16 07:30:52;;;;;;;16.80;11.20;;;19.40;99.90;;;;;;5022656;28;20471;-54
2021/09/16 07:33:19;;;;;;;22.07;10.93;;;19.30;99.90;;;;;;5031818;28;20543;-54
2021/09/16 07:35:46;;;;;;;14.60;10.50;;;19.20;99.90;;;;;;5032372;28;20445;-54
2021/09/16 07:38:13;;;;;;;15.37;9.90;;;19.20;99.90;;;;;;5032263;28;20453;-54
2021/09/16 07:40:42;;;;;;;15.40;10.80;;;19.20;99.90;;;;;;5031823;28;20487;-54
2021/09/16 07:43:09;;;;;;;15.00;10.37;;;19.30;99.90;;;;;;5017205;28;20830;-54
2021/09/16 07:45:36;;;;;;;18.70;10.33;;;19.30;99.90;;;;;;5016882;28;20973;-54
2021/09/16 07:48:04;;;;;;;14.40;10.97;;;19.40;99.90;;;;;;5028282;28;20949;-54
2021/09/16 07:50:31;;;;;;;15.30;10.57;;;19.50;99.90;;;;;;5021126;28;20450;-54
2021/09/16 07:52:58;;;;;;;17.20;10.37;;;19.40;99.90;;;;;;5013596;28;20519;-55
2021/09/16 07:55:25;;;;;;;14.60;9.70;;;19.50;99.90;;;;;;5013514;28;20935;-53
2021/09/16 07:57:53;;;;;;;13.50;9.93;;;19.50;99.90;;;;;;5013512;28;20499;-52
2021/09/16 08:00:21;;;;;;;9.37;8.23;;;19.60;99.90;;;;;;5022564;28;20534;-53
2021/09/16 08:02:51;;;;;;;13.53;9.53;;;19.60;99.90;;;;;;5031378;28;20481;-54
2021/09/16 08:05:21;;;;;;;12.80;9.80;;;19.80;99.90;;;;;;5031902;28;20449;-53
2021/09/16 08:07:48;;;;;;;12.37;10.20;;;19.70;99.90;;;;;;5031926;28;20499;-53
2021/09/16 08:10:16;;;;;;;13.87;10.00;;;19.70;99.90;;;;;;5028909;28;20460;-54
2021/09/16 08:12:43;;;;;;;11.50;9.77;;;19.80;99.90;;;;;;5025400;28;20466;-54
2021/09/16 08:15:12;;;;;;;11.90;9.30;;;19.80;99.90;;;;;;5026838;28;20573;-54
2021/09/16 08:17:40;;;;;;;15.50;11.33;;;19.80;99.90;;;;;;5014130;28;20445;-54
2021/09/16 08:20:09;;;;;;;16.60;11.47;;;19.90;99.90;;;;;;5012992;28;20564;-54
2021/09/16 08:22:38;;;;;;;13.37;9.60;;;20.10;99.90;;;;;;5029361;28;20571;-54
2021/09/16 08:25:07;;;;;;;13.70;8.77;;;20.40;99.90;;;;;;5022985;28;20483;-54
2021/09/16 08:27:35;;;;;;;11.23;9.00;;;20.50;99.90;;;;;;5019645;28;20440;-54
2021/09/16 08:30:02;;;;;;;15.60;9.40;;;20.60;99.90;;;;;;5012618;28;20441;-54
2021/09/16 08:32:31;;;;;;;10.27;8.37;;;20.60;99.90;;;;;;5012471;28;20543;-54
2021/09/16 08:34:58;;;;;;;12.63;8.37;;;20.50;99.90;;;;;;5012597;28;20507;-54
2021/09/16 08:37:25;;;;;;;12.90;8.63;;;20.40;99.90;;;;;;5012691;28;20496;-54
2021/09/16 08:39:52;;;;;;;12.23;8.30;;;20.40;99.90;;;;;;5018261;28;20502;-54
2021/09/16 08:42:22;;;;;;;9.80;7.33;;;20.40;99.90;;;;;;5031248;28;20488;-53
2021/09/16 08:44:50;;;;;;;11.57;8.67;;;20.60;99.90;;;;;;5031255;28;20503;-54
2021/09/16 08:47:17;;;;;;;9.53;8.30;;;20.70;99.90;;;;;;5032163;28;20460;-53
2021/09/16 08:49:45;;;;;;;12.53;8.20;;;20.80;99.90;;;;;;5031850;28;20452;-54
2021/09/16 08:52:13;;;;;;;14.30;8.80;;;20.80;99.90;;;;;;5031670;28;20531;-54
2021/09/16 08:54:41;;;;;;;9.20;7.87;;;20.90;99.90;;;;;;5031780;28;20453;-54
2021/09/16 08:57:15;;;;;;;10.37;8.17;;;20.90;99.90;;;;;;5031768;28;20459;-53
2021/09/16 08:59:43;;;;;;;14.90;9.30;;;21.00;99.90;;;;;;5030837;28;20456;-54
2021/09/16 09:02:10;;;;;;;13.87;8.53;;;21.00;99.90;;;;;;5026100;28;20523;-54
2021/09/16 09:04:38;;;;;;;11.70;9.50;;;20.90;99.90;;;;;;5031247;28;20498;-53
2021/09/16 09:07:07;;;;;;;12.30;8.40;;;20.90;99.90;;;;;;5021028;28;20808;-53
2021/09/16 09:09:35;;;;;;;17.20;9.53;;;20.80;99.90;;;;;;5024178;28;20530;-53
2021/09/16 09:12:04;;;;;;;13.23;9.27;;;20.80;99.90;;;;;;5022362;28;20566;-54
2021/09/16 09:14:33;;;;;;;14.50;9.73;;;20.80;99.90;;;;;;5021440;28;20464;-53
2021/09/16 09:17:02;;;;;;;14.33;9.00;;;21.00;99.90;;;;;;5020737;28;20539;-54
2021/09/16 09:19:30;;;;;;;15.53;10.53;;;21.00;99.90;;;;;;5020655;28;20538;-53
2021/09/16 09:22:00;;;;;;;13.93;10.10;;;20.90;99.90;;;;;;5020834;28;20550;-53
2021/09/16 09:24:36;;;;;;;13.70;10.97;;;20.60;99.90;;;;;;5022766;28;20456;-53
2021/09/16 09:27:20;;;;;;;13.93;11.07;;;20.30;99.90;;;;;;5022860;28;20464;-54
2021/09/16 09:30:07;;;;;;;17.90;11.80;;;20.10;99.90;;;;;;5023433;28;20456;-53
2021/09/16 09:32:52;;;;;;;16.53;10.40;;;20.20;99.90;;;;;;5022864;28;20480;-53
2021/09/16 09:35:32;;;;;;;15.40;11.10;;;20.00;99.90;;;;;;5023784;28;20509;-52
2021/09/16 09:38:02;;;;;;;15.67;10.80;;;20.00;99.90;;;;;;5030520;28;20448;-53
2021/09/16 09:40:33;;;;;;;14.23;11.00;;;20.10;99.90;;;;;;5041870;28;20483;-53
2021/09/16 09:43:22;;;;;;;15.27;11.27;;;20.00;99.90;;;;;;5033317;28;20511;-53
2021/09/16 09:46:04;;;;;;;16.40;10.77;;;19.90;99.90;;;;;;5031685;28;20456;-52
2021/09/16 09:48:33;;;;;;;13.67;10.13;;;20.20;99.90;;;;;;5030800;28;20453;-52
2021/09/16 09:51:00;;;;;;;16.90;11.10;;;20.50;99.90;;;;;;5032567;28;20526;-52
2021/09/16 09:53:27;;;;;;;14.97;10.60;;;20.70;99.90;;;;;;5042471;28;20505;-52
2021/09/16 09:55:56;;;;;;;15.90;10.10;;;21.00;99.90;;;;;;5027992;28;20464;-52
2021/09/16 09:58:35;;;;;;;11.23;9.50;;;21.20;99.90;;;;;;5023761;28;20531;-52
2021/09/16 10:01:26;;;;;;;14.83;10.53;;;21.40;99.90;;;;;;5026355;28;20519;-52
2021/09/16 10:03:53;;;;;;;12.40;8.67;;;22.10;99.90;;;;;;5023843;28;20469;-52
2021/09/16 10:06:21;;;;;;;10.40;6.83;;;23.10;99.90;;;;;;5024503;28;20472;-52
2021/09/16 10:09:11;;;;;;;10.77;6.93;;;23.90;99.90;;;;;;5026959;28;21047;-52
2021/09/16 10:11:41;;;;;;;10.03;6.60;;;24.10;99.90;;;;;;5029102;28;20476;-52
2021/09/16 10:14:08;;;;;;;13.70;7.03;;;24.10;99.90;;;;;;5030800;28;20503;-52
2021/09/16 10:16:35;;;;;;;11.50;7.73;;;23.50;99.90;;;;;;5029637;28;20538;-52
2021/09/16 10:19:02;;;;;;;8.53;7.40;;;23.00;99.90;;;;;;5023415;28;20510;-52
2021/09/16 10:21:29;;;;;;;10.40;7.07;;;22.70;99.90;;;;;;5021338;28;20542;-52
2021/09/16 10:23:57;;;;;;;12.60;7.83;;;22.60;99.90;;;;;;5025682;28;20473;-52
2021/09/16 10:26:32;;;;;;;15.03;7.43;;;22.30;99.90;;;;;;5026997;28;20452;-52
2021/09/16 10:29:00;;;;;;;18.27;7.93;;;22.20;99.90;;;;;;5030970;28;20476;-51
2021/09/16 10:31:27;;;;;;;9.50;7.03;;;21.90;99.90;;;;;;5026325;28;21060;-51
2021/09/16 10:33:54;;;;;;;7.80;6.60;;;21.70;99.90;;;;;;5025557;28;20958;-52
2021/09/16 10:36:22;;;;;;;9.60;7.30;;;21.70;99.90;;;;;;5024725;28;20465;-53
2021/09/16 10:38:51;;;;;;;8.30;5.70;;;21.50;99.90;;;;;;5030994;28;20466;-52
2021/09/16 10:41:21;;;;;;;8.90;7.00;;;21.50;99.90;;;;;;5034164;28;21036;-52
2021/09/16 10:43:51;;;;;;;8.00;6.40;;;21.50;99.90;;;;;;5033106;28;20464;-52
2021/09/16 10:46:26;;;;;;;14.67;7.13;;;21.60;99.90;;;;;;5023447;28;20531;-52
2021/09/16 10:48:54;;;;;;;9.10;6.43;;;21.40;99.90;;;;;;5029444;28;20830;-52
2021/09/16 10:51:41;;;;;;;10.00;6.40;;;21.50;99.90;;;;;;5022281;28;20542;-52
2021/09/16 10:54:44;;;;;;;9.57;6.90;;;21.60;99.90;;;;;;5028948;28;20587;-52
2021/09/16 10:57:13;;;;;;;11.07;7.30;;;21.50;99.90;;;;;;5019185;28;20801;-53
2021/09/16 11:00:18;;;;;;;10.93;7.50;;;21.10;99.90;;;;;;5031092;28;20468;-53
2021/09/16 11:03:14;;;;;;;10.23;8.03;;;21.00;99.90;;;;;;5030612;28;20982;-52
2021/09/16 11:05:55;;;;;;;14.23;8.67;;;20.90;99.90;;;;;;5024839;28;20477;-52
2021/09/16 11:08:44;;;;;;;14.50;9.40;;;20.20;99.90;;;;;;5029669;28;20470;-53
2021/09/16 11:11:11;;;;;;;15.47;9.73;;;19.90;99.90;;;;;;5027630;28;21045;-52
2021/09/16 11:13:53;;;;;;;15.87;10.00;;;19.60;99.90;;;;;;5029583;28;20498;-53
2021/09/16 11:16:28;;;;;;;6.63;5.00;;;19.40;99.90;;;;;;5030954;28;21036;-53
2021/09/16 11:19:04;;;;;;;11.10;6.90;;;18.90;99.90;;;;;;5033621;28;20456;-53
2021/09/16 11:21:33;;;;;;;11.30;5.20;;;18.80;99.90;;;;;;5053500;23;20986;-59
2021/09/16 11:24:00;;;;;;;4.87;4.00;;;18.80;99.90;;;;;;5012269;28;20555;-59
2021/09/16 11:26:29;;;;;;;5.23;4.37;;;18.90;99.90;;;;;;5010967;28;20473;-59
2021/09/16 11:28:58;;;;;;;6.13;4.40;;;18.80;99.90;;;;;;5013829;28;20548;-59
2021/09/16 11:31:25;;;;;;;4.73;3.80;;;19.00;99.90;;;;;;5013339;28;20446;-59
2021/09/16 11:34:07;;;;;;;10.03;5.03;;;19.00;99.90;;;;;;4994913;28;20548;-59
2021/09/16 11:36:34;;;;;;;6.20;4.67;;;19.00;99.90;;;;;;4997807;28;20485;-59
2021/09/16 11:39:14;;;;;;;12.10;4.80;;;19.20;99.90;;;;;;5004303;28;20513;-59
2021/09/16 11:41:41;;;;;;;4.63;4.23;;;19.20;99.90;;;;;;5003354;28;20844;-60
2021/09/16 11:44:09;;;;;;;7.37;4.97;;;19.30;99.90;;;;;;4996832;28;20519;-59
2021/09/16 11:46:36;;;;;;;7.60;5.30;;;19.40;99.90;;;;;;4999887;28;20566;-60
2021/09/16 11:49:03;;;;;;;7.67;4.63;;;19.50;99.90;;;;;;5006008;28;20466;-59
2021/09/16 11:51:32;;;;;;;4.90;4.20;;;19.70;99.90;;;;;;5004701;28;20935;-60
2021/09/16 11:54:11;;;;;;;10.30;5.60;;;19.90;99.90;;;;;;5003034;28;20534;-60
2021/09/16 11:56:38;;;;;;;11.93;4.80;;;20.00;99.90;;;;;;4999521;28;20545;-60
2021/09/16 11:59:09;;;;;;;7.33;4.60;;;20.10;99.90;;;;;;5004711;28;20470;-59
2021/09/16 12:01:36;;;;;;;6.83;4.80;;;20.20;99.90;;;;;;5008231;28;20873;-60
2021/09/16 12:04:03;;;;;;;5.33;3.07;;;20.40;99.90;;;;;;4991084;28;21468;-59
2021/09/16 12:06:35;;;;;;;4.00;3.20;;;20.40;99.90;;;;;;4998311;28;20492;-60
2021/09/16 12:09:04;;;;;;;3.40;2.97;;;20.50;99.90;;;;;;4991739;28;20489;-60
2021/09/16 12:11:32;;;;;;;4.47;3.10;;;20.60;99.90;;;;;;4996715;28;20450;-60
2021/09/16 12:14:01;;;;;;;3.27;3.00;;;20.50;99.90;;;;;;4997445;28;20470;-60
2021/09/16 12:16:30;;;;;;;3.33;2.60;;;20.70;99.90;;;;;;5004821;28;20446;-60
2021/09/16 12:19:00;;;;;;;5.20;3.00;;;21.00;99.90;;;;;;5006437;28;20462;-60
2021/09/16 12:21:30;;;;;;;4.23;2.70;;;21.30;99.90;;;;;;4994824;28;20483;-61
2021/09/16 12:24:05;;;;;;;4.30;2.47;;;21.50;99.90;;;;;;5001164;28;21026;-61
2021/09/16 12:26:36;;;;;;;4.57;2.60;;;21.30;99.90;;;;;;5008401;28;20476;-60
2021/09/16 12:29:06;;;;;;;5.70;2.90;;;21.20;99.90;;;;;;5001036;28;20469;-60
2021/09/16 12:31:35;;;;;;;4.50;2.43;;;21.20;99.90;;;;;;4997269;28;20443;-60
2021/09/16 12:34:05;;;;;;;3.67;2.27;;;21.20;99.90;;;;;;4992191;28;20478;-60
2021/09/16 12:36:34;;;;;;;2.33;2.13;;;21.20;99.90;;;;;;5002064;28;20478;-60
2021/09/16 12:39:12;;;;;;;2.77;1.90;;;21.10;99.90;;;;;;5004999;28;20524;-60
2021/09/16 12:41:43;;;;;;;2.67;2.47;;;21.10;99.90;;;;;;4997889;28;20512;-59